sensor_id;sensor_type;location;lat;lon;timestamp;pressure;altitude;pressure_sealevel;temperature
20058;BMP180;10189;49.546;7.906;2024-02-28T00:01:04;98314.00;;;4.60
20058;BMP180;10189;49.546;7.906;2024-02-28T00:03:30;98327.00;;;4.70
20058;BMP180;10189;49.546;7.906;2024-02-28T00:05:57;98316.00;;;4.70
20058;BMP180;10189;49.546;7.906;2024-02-28T00:08:23;98327.00;;;4.60
20058;BMP180;10189;49.546;7.906;2024-02-28T00:10:49;98329.00;;;4.60
20058;BMP180;10189;49.546;7.906;2024-02-28T00:13:15;98325.00;;;4.50
20058;BMP180;10189;49.546;7.906;2024-02-28T00:15:42;98326.00;;;4.50
20058;BMP180;10189;49.546;7.906;2024-02-28T00:18:07;98330.00;;;4.50
20058;BMP180;10189;49.546;7.906;2024-02-28T00:20:33;98328.00;;;4.40
20058;BMP180;10189;49.546;7.906;2024-02-28T00:22:59;98319.00;;;4.40
20058;BMP180;10189;49.546;7.906;2024-02-28T00:25:25;98321.00;;;4.40
20058;BMP180;10189;49.546;7.906;2024-02-28T00:27:51;98327.00;;;4.50
20058;BMP180;10189;49.546;7.906;2024-02-28T00:30:17;98323.00;;;4.30
20058;BMP180;10189;49.546;7.906;2024-02-28T00:32:43;98329.00;;;4.30
20058;BMP180;10189;49.546;7.906;2024-02-28T00:35:09;98334.00;;;4.50
20058;BMP180;10189;49.546;7.906;2024-02-28T00:37:35;98332.00;;;4.50
20058;BMP180;10189;49.546;7.906;2024-02-28T00:40:01;98333.00;;;4.50
20058;BMP180;10189;49.546;7.906;2024-02-28T00:42:27;98345.00;;;4.40
20058;BMP180;10189;49.546;7.906;2024-02-28T00:44:53;98325.00;;;4.40
20058;BMP180;10189;49.546;7.906;2024-02-28T00:47:19;98340.00;;;4.30
20058;BMP180;10189;49.546;7.906;2024-02-28T00:49:44;98330.00;;;4.30
20058;BMP180;10189;49.546;7.906;2024-02-28T00:52:10;98343.00;;;4.10
20058;BMP180;10189;49.546;7.906;2024-02-28T00:54:36;98349.00;;;4.10
20058;BMP180;10189;49.546;7.906;2024-02-28T00:57:03;98346.00;;;4.20
20058;BMP180;10189;49.546;7.906;2024-02-28T00:59:28;98346.00;;;4.20
20058;BMP180;10189;49.546;7.906;2024-02-28T01:01:54;98356.00;;;4.20
20058;BMP180;10189;49.546;7.906;2024-02-28T01:04:20;98358.00;;;4.20
20058;BMP180;10189;49.546;7.906;2024-02-28T01:06:46;98359.00;;;4.20
20058;BMP180;10189;49.546;7.906;2024-02-28T01:09:12;98356.00;;;4.10
20058;BMP180;10189;49.546;7.906;2024-02-28T01:11:37;98363.00;;;4.10
20058;BMP180;10189;49.546;7.906;2024-02-28T01:14:04;98373.00;;;4.10
20058;BMP180;10189;49.546;7.906;2024-02-28T01:16:30;98372.00;;;4.10
20058;BMP180;10189;49.546;7.906;2024-02-28T01:18:56;98366.00;;;4.10
20058;BMP180;10189;49.546;7.906;2024-02-28T01:21:22;98361.00;;;4.20
20058;BMP180;10189;49.546;7.906;2024-02-28T01:23:48;98373.00;;;4.10
20058;BMP180;10189;49.546;7.906;2024-02-28T01:26:14;98379.00;;;4.10
20058;BMP180;10189;49.546;7.906;2024-02-28T01:28:40;98388.00;;;4.10
20058;BMP180;10189;49.546;7.906;2024-02-28T01:31:08;98375.00;;;4.00
20058;BMP180;10189;49.546;7.906;2024-02-28T01:33:34;98370.00;;;4.10
20058;BMP180;10189;49.546;7.906;2024-02-28T01:36:00;98380.00;;;4.00
20058;BMP180;10189;49.546;7.906;2024-02-28T01:38:26;98379.00;;;4.00
20058;BMP180;10189;49.546;7.906;2024-02-28T01:40:52;98378.00;;;4.00
20058;BMP180;10189;49.546;7.906;2024-02-28T01:43:18;98374.00;;;4.10
20058;BMP180;10189;49.546;7.906;2024-02-28T01:45:44;98382.00;;;4.10
20058;BMP180;10189;49.546;7.906;2024-02-28T01:48:11;98373.00;;;4.00
20058;BMP180;10189;49.546;7.906;2024-02-28T01:50:38;98388.00;;;4.00
20058;BMP180;10189;49.546;7.906;2024-02-28T01:53:08;98393.00;;;3.90
20058;BMP180;10189;49.546;7.906;2024-02-28T01:55:35;98385.00;;;3.90
20058;BMP180;10189;49.546;7.906;2024-02-28T01:58:02;98385.00;;;4.00
20058;BMP180;10189;49.546;7.906;2024-02-28T02:00:33;98382.00;;;3.90
20058;BMP180;10189;49.546;7.906;2024-02-28T02:03:03;98384.00;;;4.00
20058;BMP180;10189;49.546;7.906;2024-02-28T02:05:29;98374.00;;;3.90
20058;BMP180;10189;49.546;7.906;2024-02-28T02:07:58;98385.00;;;3.80
20058;BMP180;10189;49.546;7.906;2024-02-28T02:10:25;98377.00;;;3.90
20058;BMP180;10189;49.546;7.906;2024-02-28T02:12:51;98382.00;;;3.70
20058;BMP180;10189;49.546;7.906;2024-02-28T02:15:18;98393.00;;;3.70
20058;BMP180;10189;49.546;7.906;2024-02-28T02:17:44;98380.00;;;3.80
20058;BMP180;10189;49.546;7.906;2024-02-28T02:20:14;98396.00;;;3.70
20058;BMP180;10189;49.546;7.906;2024-02-28T02:22:40;98396.00;;;3.80
20058;BMP180;10189;49.546;7.906;2024-02-28T02:25:06;98392.00;;;3.70
20058;BMP180;10189;49.546;7.906;2024-02-28T02:27:32;98393.00;;;3.70
20058;BMP180;10189;49.546;7.906;2024-02-28T02:29:58;98394.00;;;3.60
20058;BMP180;10189;49.546;7.906;2024-02-28T02:32:24;98399.00;;;3.70
20058;BMP180;10189;49.546;7.906;2024-02-28T02:34:50;98398.00;;;3.70
20058;BMP180;10189;49.546;7.906;2024-02-28T02:37:16;98411.00;;;3.60
20058;BMP180;10189;49.546;7.906;2024-02-28T02:39:42;98403.00;;;3.50
20058;BMP180;10189;49.546;7.906;2024-02-28T02:42:08;98408.00;;;3.50
20058;BMP180;10189;49.546;7.906;2024-02-28T02:44:34;98415.00;;;3.40
20058;BMP180;10189;49.546;7.906;2024-02-28T02:47:00;98404.00;;;3.50
20058;BMP180;10189;49.546;7.906;2024-02-28T02:49:26;98403.00;;;3.50
20058;BMP180;10189;49.546;7.906;2024-02-28T02:51:52;98413.00;;;3.50
20058;BMP180;10189;49.546;7.906;2024-02-28T02:54:18;98411.00;;;3.50
20058;BMP180;10189;49.546;7.906;2024-02-28T02:56:43;98403.00;;;3.50
20058;BMP180;10189;49.546;7.906;2024-02-28T02:59:10;98420.00;;;3.40
20058;BMP180;10189;49.546;7.906;2024-02-28T03:01:37;98410.00;;;3.50
20058;BMP180;10189;49.546;7.906;2024-02-28T03:04:03;98420.00;;;3.40
20058;BMP180;10189;49.546;7.906;2024-02-28T03:06:29;98422.00;;;3.30
20058;BMP180;10189;49.546;7.906;2024-02-28T03:08:55;98424.00;;;3.30
20058;BMP180;10189;49.546;7.906;2024-02-28T03:11:21;98419.00;;;3.20
20058;BMP180;10189;49.546;7.906;2024-02-28T03:13:46;98414.00;;;3.20
20058;BMP180;10189;49.546;7.906;2024-02-28T03:16:12;98425.00;;;3.20
20058;BMP180;10189;49.546;7.906;2024-02-28T03:18:38;98417.00;;;3.10
20058;BMP180;10189;49.546;7.906;2024-02-28T03:21:04;98426.00;;;3.00
20058;BMP180;10189;49.546;7.906;2024-02-28T03:23:30;98430.00;;;3.00
20058;BMP180;10189;49.546;7.906;2024-02-28T03:25:56;98436.00;;;2.90
20058;BMP180;10189;49.546;7.906;2024-02-28T03:28:21;98436.00;;;2.90
20058;BMP180;10189;49.546;7.906;2024-02-28T03:30:47;98436.00;;;2.90
20058;BMP180;10189;49.546;7.906;2024-02-28T03:33:13;98443.00;;;2.80
20058;BMP180;10189;49.546;7.906;2024-02-28T03:35:39;98437.00;;;2.80
20058;BMP180;10189;49.546;7.906;2024-02-28T03:38:05;98435.00;;;2.80
20058;BMP180;10189;49.546;7.906;2024-02-28T03:40:31;98437.00;;;2.80
20058;BMP180;10189;49.546;7.906;2024-02-28T03:42:57;98433.00;;;2.80
20058;BMP180;10189;49.546;7.906;2024-02-28T03:45:27;98436.00;;;2.90
20058;BMP180;10189;49.546;7.906;2024-02-28T03:47:53;98431.00;;;3.00
20058;BMP180;10189;49.546;7.906;2024-02-28T03:50:19;98443.00;;;3.00
20058;BMP180;10189;49.546;7.906;2024-02-28T03:52:45;98450.00;;;3.10
20058;BMP180;10189;49.546;7.906;2024-02-28T03:55:10;98462.00;;;3.00
20058;BMP180;10189;49.546;7.906;2024-02-28T03:57:36;98463.00;;;3.00
20058;BMP180;10189;49.546;7.906;2024-02-28T04:00:03;98468.00;;;2.90
20058;BMP180;10189;49.546;7.906;2024-02-28T04:02:37;98464.00;;;2.80
20058;BMP180;10189;49.546;7.906;2024-02-28T04:05:04;98465.00;;;2.80
20058;BMP180;10189;49.546;7.906;2024-02-28T04:07:29;98469.00;;;2.70
20058;BMP180;10189;49.546;7.906;2024-02-28T04:09:55;98461.00;;;2.70
20058;BMP180;10189;49.546;7.906;2024-02-28T04:12:21;98463.00;;;2.70
20058;BMP180;10189;49.546;7.906;2024-02-28T04:14:47;98479.00;;;2.60
20058;BMP180;10189;49.546;7.906;2024-02-28T04:17:13;98478.00;;;2.60
20058;BMP180;10189;49.546;7.906;2024-02-28T04:19:39;98488.00;;;2.60
20058;BMP180;10189;49.546;7.906;2024-02-28T04:22:05;98488.00;;;2.70
20058;BMP180;10189;49.546;7.906;2024-02-28T04:24:31;98487.00;;;2.80
20058;BMP180;10189;49.546;7.906;2024-02-28T04:26:58;98490.00;;;2.80
20058;BMP180;10189;49.546;7.906;2024-02-28T04:29:25;98483.00;;;2.80
20058;BMP180;10189;49.546;7.906;2024-02-28T04:31:51;98480.00;;;2.80
20058;BMP180;10189;49.546;7.906;2024-02-28T04:34:17;98493.00;;;2.70
20058;BMP180;10189;49.546;7.906;2024-02-28T04:36:43;98499.00;;;2.60
20058;BMP180;10189;49.546;7.906;2024-02-28T04:39:08;98488.00;;;2.50
20058;BMP180;10189;49.546;7.906;2024-02-28T04:41:34;98498.00;;;2.50
20058;BMP180;10189;49.546;7.906;2024-02-28T04:44:00;98505.00;;;2.60
20058;BMP180;10189;49.546;7.906;2024-02-28T04:46:26;98523.00;;;2.50
20058;BMP180;10189;49.546;7.906;2024-02-28T04:48:52;98518.00;;;2.50
20058;BMP180;10189;49.546;7.906;2024-02-28T04:51:18;98516.00;;;2.60
20058;BMP180;10189;49.546;7.906;2024-02-28T04:53:43;98530.00;;;2.60
20058;BMP180;10189;49.546;7.906;2024-02-28T04:56:10;98535.00;;;2.60
20058;BMP180;10189;49.546;7.906;2024-02-28T04:58:38;98530.00;;;2.70
20058;BMP180;10189;49.546;7.906;2024-02-28T05:01:04;98531.00;;;2.80
20058;BMP180;10189;49.546;7.906;2024-02-28T05:03:30;98527.00;;;2.90
20058;BMP180;10189;49.546;7.906;2024-02-28T05:05:55;98518.00;;;2.90
20058;BMP180;10189;49.546;7.906;2024-02-28T05:08:21;98525.00;;;2.90
20058;BMP180;10189;49.546;7.906;2024-02-28T05:10:47;98523.00;;;2.90
20058;BMP180;10189;49.546;7.906;2024-02-28T05:13:15;98519.00;;;3.00
20058;BMP180;10189;49.546;7.906;2024-02-28T05:15:41;98511.00;;;3.10
20058;BMP180;10189;49.546;7.906;2024-02-28T05:18:07;98516.00;;;3.20
20058;BMP180;10189;49.546;7.906;2024-02-28T05:20:33;98525.00;;;3.30
20058;BMP180;10189;49.546;7.906;2024-02-28T05:22:59;98520.00;;;3.40
20058;BMP180;10189;49.546;7.906;2024-02-28T05:25:25;98514.00;;;3.40
20058;BMP180;10189;49.546;7.906;2024-02-28T05:27:51;98515.00;;;3.50
20058;BMP180;10189;49.546;7.906;2024-02-28T05:30:17;98521.00;;;3.60
20058;BMP180;10189;49.546;7.906;2024-02-28T05:32:42;98514.00;;;3.60
20058;BMP180;10189;49.546;7.906;2024-02-28T05:35:08;98525.00;;;3.60
20058;BMP180;10189;49.546;7.906;2024-02-28T05:37:37;98526.00;;;3.70
20058;BMP180;10189;49.546;7.906;2024-02-28T05:40:04;98531.00;;;3.80
20058;BMP180;10189;49.546;7.906;2024-02-28T05:42:32;98535.00;;;3.80
20058;BMP180;10189;49.546;7.906;2024-02-28T05:44:57;98539.00;;;3.80
20058;BMP180;10189;49.546;7.906;2024-02-28T05:47:23;98546.00;;;3.90
20058;BMP180;10189;49.546;7.906;2024-02-28T05:49:49;98543.00;;;4.00
20058;BMP180;10189;49.546;7.906;2024-02-28T05:52:15;98536.00;;;4.10
20058;BMP180;10189;49.546;7.906;2024-02-28T05:54:41;98549.00;;;4.10
20058;BMP180;10189;49.546;7.906;2024-02-28T05:57:07;98553.00;;;4.10
20058;BMP180;10189;49.546;7.906;2024-02-28T05:59:33;98556.00;;;4.20
20058;BMP180;10189;49.546;7.906;2024-02-28T06:01:59;98561.00;;;4.10
20058;BMP180;10189;49.546;7.906;2024-02-28T06:04:24;98568.00;;;4.10
20058;BMP180;10189;49.546;7.906;2024-02-28T06:06:50;98554.00;;;4.10
20058;BMP180;10189;49.546;7.906;2024-02-28T06:09:16;98565.00;;;4.10
20058;BMP180;10189;49.546;7.906;2024-02-28T06:11:42;98547.00;;;4.20
20058;BMP180;10189;49.546;7.906;2024-02-28T06:14:08;98561.00;;;4.00
20058;BMP180;10189;49.546;7.906;2024-02-28T06:16:34;98557.00;;;4.10
20058;BMP180;10189;49.546;7.906;2024-02-28T06:19:00;98560.00;;;4.10
20058;BMP180;10189;49.546;7.906;2024-02-28T06:21:26;98575.00;;;4.10
20058;BMP180;10189;49.546;7.906;2024-02-28T06:23:52;98582.00;;;4.00
20058;BMP180;10189;49.546;7.906;2024-02-28T06:26:18;98591.00;;;4.10
20058;BMP180;10189;49.546;7.906;2024-02-28T06:28:44;98587.00;;;4.20
20058;BMP180;10189;49.546;7.906;2024-02-28T06:31:16;98594.00;;;4.20
20058;BMP180;10189;49.546;7.906;2024-02-28T06:33:45;98596.00;;;4.20
20058;BMP180;10189;49.546;7.906;2024-02-28T06:36:11;98602.00;;;4.20
20058;BMP180;10189;49.546;7.906;2024-02-28T06:38:37;98610.00;;;4.30
20058;BMP180;10189;49.546;7.906;2024-02-28T06:41:06;98606.00;;;4.40
20058;BMP180;10189;49.546;7.906;2024-02-28T06:43:35;98620.00;;;4.40
20058;BMP180;10189;49.546;7.906;2024-02-28T06:46:02;98618.00;;;4.50
20058;BMP180;10189;49.546;7.906;2024-02-28T06:48:28;98614.00;;;4.50
20058;BMP180;10189;49.546;7.906;2024-02-28T06:50:55;98617.00;;;4.50
20058;BMP180;10189;49.546;7.906;2024-02-28T06:53:21;98615.00;;;4.60
20058;BMP180;10189;49.546;7.906;2024-02-28T06:55:47;98621.00;;;4.70
20058;BMP180;10189;49.546;7.906;2024-02-28T06:58:15;98627.00;;;4.80
20058;BMP180;10189;49.546;7.906;2024-02-28T07:00:41;98630.00;;;4.80
20058;BMP180;10189;49.546;7.906;2024-02-28T07:03:06;98623.00;;;4.90
20058;BMP180;10189;49.546;7.906;2024-02-28T07:05:33;98619.00;;;4.90
20058;BMP180;10189;49.546;7.906;2024-02-28T07:08:02;98612.00;;;5.00
20058;BMP180;10189;49.546;7.906;2024-02-28T07:10:28;98615.00;;;5.00
20058;BMP180;10189;49.546;7.906;2024-02-28T07:12:53;98606.00;;;5.00
20058;BMP180;10189;49.546;7.906;2024-02-28T07:15:19;98615.00;;;5.00
20058;BMP180;10189;49.546;7.906;2024-02-28T07:17:47;98625.00;;;4.90
20058;BMP180;10189;49.546;7.906;2024-02-28T07:20:13;98630.00;;;5.00
20058;BMP180;10189;49.546;7.906;2024-02-28T07:22:42;98632.00;;;4.80
20058;BMP180;10189;49.546;7.906;2024-02-28T07:25:09;98650.00;;;4.40
20058;BMP180;10189;49.546;7.906;2024-02-28T07:27:34;98644.00;;;4.40
20058;BMP180;10189;49.546;7.906;2024-02-28T07:30:02;98635.00;;;4.40
20058;BMP180;10189;49.546;7.906;2024-02-28T07:32:29;98643.00;;;4.50
20058;BMP180;10189;49.546;7.906;2024-02-28T07:35:03;98648.00;;;4.40
20058;BMP180;10189;49.546;7.906;2024-02-28T07:37:29;98647.00;;;4.60
20058;BMP180;10189;49.546;7.906;2024-02-28T07:39:55;98652.00;;;4.50
20058;BMP180;10189;49.546;7.906;2024-02-28T07:42:21;98638.00;;;4.60
20058;BMP180;10189;49.546;7.906;2024-02-28T07:44:46;98649.00;;;4.50
20058;BMP180;10189;49.546;7.906;2024-02-28T07:47:12;98652.00;;;4.40
20058;BMP180;10189;49.546;7.906;2024-02-28T07:49:40;98650.00;;;4.60
20058;BMP180;10189;49.546;7.906;2024-02-28T07:52:06;98635.00;;;4.70
20058;BMP180;10189;49.546;7.906;2024-02-28T07:54:31;98625.00;;;4.90
20058;BMP180;10189;49.546;7.906;2024-02-28T07:56:57;98630.00;;;4.90
20058;BMP180;10189;49.546;7.906;2024-02-28T07:59:23;98644.00;;;4.90
20058;BMP180;10189;49.546;7.906;2024-02-28T08:01:49;98629.00;;;5.00
20058;BMP180;10189;49.546;7.906;2024-02-28T08:04:15;98643.00;;;5.00
20058;BMP180;10189;49.546;7.906;2024-02-28T08:06:41;98648.00;;;5.00
20058;BMP180;10189;49.546;7.906;2024-02-28T08:09:06;98653.00;;;4.80
20058;BMP180;10189;49.546;7.906;2024-02-28T08:11:33;98652.00;;;4.90
20058;BMP180;10189;49.546;7.906;2024-02-28T08:13:58;98659.00;;;5.00
20058;BMP180;10189;49.546;7.906;2024-02-28T08:16:24;98659.00;;;5.10
20058;BMP180;10189;49.546;7.906;2024-02-28T08:18:50;98656.00;;;5.30
20058;BMP180;10189;49.546;7.906;2024-02-28T08:21:16;98645.00;;;5.20
20058;BMP180;10189;49.546;7.906;2024-02-28T08:23:43;98652.00;;;5.20
20058;BMP180;10189;49.546;7.906;2024-02-28T08:26:10;98652.00;;;5.30
20058;BMP180;10189;49.546;7.906;2024-02-28T08:28:36;98653.00;;;5.20
20058;BMP180;10189;49.546;7.906;2024-02-28T08:31:02;98650.00;;;5.20
20058;BMP180;10189;49.546;7.906;2024-02-28T08:33:29;98654.00;;;5.40
20058;BMP180;10189;49.546;7.906;2024-02-28T08:35:54;98649.00;;;5.40
20058;BMP180;10189;49.546;7.906;2024-02-28T08:38:20;98656.00;;;5.30
20058;BMP180;10189;49.546;7.906;2024-02-28T08:40:46;98652.00;;;5.30
20058;BMP180;10189;49.546;7.906;2024-02-28T08:43:12;98654.00;;;5.50
20058;BMP180;10189;49.546;7.906;2024-02-28T08:45:38;98657.00;;;5.40
20058;BMP180;10189;49.546;7.906;2024-02-28T08:48:05;98669.00;;;5.40
20058;BMP180;10189;49.546;7.906;2024-02-28T08:50:32;98668.00;;;5.20
20058;BMP180;10189;49.546;7.906;2024-02-28T08:52:57;98665.00;;;5.40
20058;BMP180;10189;49.546;7.906;2024-02-28T08:55:23;98658.00;;;5.70
20058;BMP180;10189;49.546;7.906;2024-02-28T08:57:49;98652.00;;;6.00
20058;BMP180;10189;49.546;7.906;2024-02-28T09:00:15;98658.00;;;6.20
20058;BMP180;10189;49.546;7.906;2024-02-28T09:02:42;98656.00;;;6.50
20058;BMP180;10189;49.546;7.906;2024-02-28T09:05:08;98654.00;;;6.60
20058;BMP180;10189;49.546;7.906;2024-02-28T09:07:35;98658.00;;;6.80
20058;BMP180;10189;49.546;7.906;2024-02-28T09:10:04;98673.00;;;6.40
20058;BMP180;10189;49.546;7.906;2024-02-28T09:12:31;98691.00;;;5.90
20058;BMP180;10189;49.546;7.906;2024-02-28T09:14:57;98686.00;;;5.90
20058;BMP180;10189;49.546;7.906;2024-02-28T09:17:24;98683.00;;;6.00
20058;BMP180;10189;49.546;7.906;2024-02-28T09:19:50;98697.00;;;6.10
20058;BMP180;10189;49.546;7.906;2024-02-28T09:22:17;98695.00;;;6.30
20058;BMP180;10189;49.546;7.906;2024-02-28T09:24:43;98701.00;;;6.70
20058;BMP180;10189;49.546;7.906;2024-02-28T09:27:09;98694.00;;;6.50
20058;BMP180;10189;49.546;7.906;2024-02-28T09:29:35;98693.00;;;6.60
20058;BMP180;10189;49.546;7.906;2024-02-28T09:32:01;98696.00;;;6.50
20058;BMP180;10189;49.546;7.906;2024-02-28T09:34:27;98700.00;;;6.80
20058;BMP180;10189;49.546;7.906;2024-02-28T09:36:53;98700.00;;;6.80
20058;BMP180;10189;49.546;7.906;2024-02-28T09:39:19;98695.00;;;6.90
20058;BMP180;10189;49.546;7.906;2024-02-28T09:41:50;98690.00;;;7.20
20058;BMP180;10189;49.546;7.906;2024-02-28T09:44:16;98691.00;;;7.20
20058;BMP180;10189;49.546;7.906;2024-02-28T09:46:43;98674.00;;;7.30
20058;BMP180;10189;49.546;7.906;2024-02-28T09:49:10;98683.00;;;7.60
20058;BMP180;10189;49.546;7.906;2024-02-28T09:51:36;98676.00;;;7.60
20058;BMP180;10189;49.546;7.906;2024-02-28T09:54:03;98674.00;;;7.90
20058;BMP180;10189;49.546;7.906;2024-02-28T09:56:33;98680.00;;;7.90
20058;BMP180;10189;49.546;7.906;2024-02-28T09:59:00;98690.00;;;7.60
20058;BMP180;10189;49.546;7.906;2024-02-28T10:01:28;98680.00;;;8.00
20058;BMP180;10189;49.546;7.906;2024-02-28T10:03:56;98675.00;;;8.50
20058;BMP180;10189;49.546;7.906;2024-02-28T10:06:24;98668.00;;;8.40
20058;BMP180;10189;49.546;7.906;2024-02-28T10:08:50;98670.00;;;8.80
20058;BMP180;10189;49.546;7.906;2024-02-28T10:11:24;98681.00;;;8.20
20058;BMP180;10189;49.546;7.906;2024-02-28T10:13:52;98693.00;;;8.20
20058;BMP180;10189;49.546;7.906;2024-02-28T10:16:21;98687.00;;;8.40
20058;BMP180;10189;49.546;7.906;2024-02-28T10:18:47;98687.00;;;8.40
20058;BMP180;10189;49.546;7.906;2024-02-28T10:21:14;98687.00;;;8.70
20058;BMP180;10189;49.546;7.906;2024-02-28T10:23:45;98684.00;;;9.00
20058;BMP180;10189;49.546;7.906;2024-02-28T10:26:12;98690.00;;;9.00
20058;BMP180;10189;49.546;7.906;2024-02-28T10:28:39;98683.00;;;9.00
20058;BMP180;10189;49.546;7.906;2024-02-28T10:31:06;98676.00;;;9.20
20058;BMP180;10189;49.546;7.906;2024-02-28T10:33:36;98690.00;;;8.70
20058;BMP180;10189;49.546;7.906;2024-02-28T10:36:04;98692.00;;;9.00
20058;BMP180;10189;49.546;7.906;2024-02-28T10:38:32;98695.00;;;9.00
20058;BMP180;10189;49.546;7.906;2024-02-28T10:41:04;98695.00;;;9.20
20058;BMP180;10189;49.546;7.906;2024-02-28T10:43:31;98699.00;;;9.30
20058;BMP180;10189;49.546;7.906;2024-02-28T10:46:01;98696.00;;;8.90
20058;BMP180;10189;49.546;7.906;2024-02-28T10:48:28;98690.00;;;9.00
20058;BMP180;10189;49.546;7.906;2024-02-28T10:50:54;98706.00;;;8.80
20058;BMP180;10189;49.546;7.906;2024-02-28T10:53:25;98697.00;;;8.50
20058;BMP180;10189;49.546;7.906;2024-02-28T10:56:02;98701.00;;;8.60
20058;BMP180;10189;49.546;7.906;2024-02-28T10:58:45;98704.00;;;8.50
20058;BMP180;10189;49.546;7.906;2024-02-28T11:01:14;98706.00;;;8.40
20058;BMP180;10189;49.546;7.906;2024-02-28T11:03:41;98698.00;;;8.50
20058;BMP180;10189;49.546;7.906;2024-02-28T11:06:20;98705.00;;;8.40
20058;BMP180;10189;49.546;7.906;2024-02-28T11:08:48;98707.00;;;8.60
20058;BMP180;10189;49.546;7.906;2024-02-28T11:11:15;98711.00;;;8.70
20058;BMP180;10189;49.546;7.906;2024-02-28T11:13:56;98696.00;;;8.70
20058;BMP180;10189;49.546;7.906;2024-02-28T11:16:33;98700.00;;;8.60
20058;BMP180;10189;49.546;7.906;2024-02-28T11:19:01;98691.00;;;9.00
20058;BMP180;10189;49.546;7.906;2024-02-28T11:21:28;98691.00;;;9.00
20058;BMP180;10189;49.546;7.906;2024-02-28T11:23:58;98694.00;;;9.20
20058;BMP180;10189;49.546;7.906;2024-02-28T11:26:25;98694.00;;;9.10
20058;BMP180;10189;49.546;7.906;2024-02-28T11:28:51;98692.00;;;9.30
20058;BMP180;10189;49.546;7.906;2024-02-28T11:31:17;98697.00;;;9.20
20058;BMP180;10189;49.546;7.906;2024-02-28T11:33:44;98693.00;;;9.10
20058;BMP180;10189;49.546;7.906;2024-02-28T11:36:12;98682.00;;;9.30
20058;BMP180;10189;49.546;7.906;2024-02-28T11:38:39;98670.00;;;9.30
20058;BMP180;10189;49.546;7.906;2024-02-28T11:41:06;98668.00;;;9.40
20058;BMP180;10189;49.546;7.906;2024-02-28T11:43:33;98680.00;;;9.40
20058;BMP180;10189;49.546;7.906;2024-02-28T11:46:00;98677.00;;;9.70
20058;BMP180;10189;49.546;7.906;2024-02-28T11:48:27;98674.00;;;9.90
20058;BMP180;10189;49.546;7.906;2024-02-28T11:50:54;98681.00;;;9.90
20058;BMP180;10189;49.546;7.906;2024-02-28T11:53:19;98680.00;;;9.90
20058;BMP180;10189;49.546;7.906;2024-02-28T11:55:46;98672.00;;;9.90
20058;BMP180;10189;49.546;7.906;2024-02-28T11:58:13;98669.00;;;9.70
20058;BMP180;10189;49.546;7.906;2024-02-28T12:00:47;98672.00;;;10.00
20058;BMP180;10189;49.546;7.906;2024-02-28T12:03:13;98669.00;;;10.00
20058;BMP180;10189;49.546;7.906;2024-02-28T12:05:43;98666.00;;;10.10
20058;BMP180;10189;49.546;7.906;2024-02-28T12:08:11;98656.00;;;10.10
20058;BMP180;10189;49.546;7.906;2024-02-28T12:10:37;98656.00;;;10.20
20058;BMP180;10189;49.546;7.906;2024-02-28T12:13:03;98639.00;;;10.50
20058;BMP180;10189;49.546;7.906;2024-02-28T12:15:30;98646.00;;;10.80
20058;BMP180;10189;49.546;7.906;2024-02-28T12:17:57;98638.00;;;10.60
20058;BMP180;10189;49.546;7.906;2024-02-28T12:20:25;98634.00;;;10.80
20058;BMP180;10189;49.546;7.906;2024-02-28T12:22:51;98622.00;;;10.80
20058;BMP180;10189;49.546;7.906;2024-02-28T12:25:17;98631.00;;;10.90
20058;BMP180;10189;49.546;7.906;2024-02-28T12:27:44;98626.00;;;10.80
20058;BMP180;10189;49.546;7.906;2024-02-28T12:30:10;98621.00;;;11.00
20058;BMP180;10189;49.546;7.906;2024-02-28T12:32:36;98626.00;;;11.00
20058;BMP180;10189;49.546;7.906;2024-02-28T12:35:02;98619.00;;;11.10
20058;BMP180;10189;49.546;7.906;2024-02-28T12:37:29;98622.00;;;11.10
20058;BMP180;10189;49.546;7.906;2024-02-28T12:39:56;98609.00;;;11.20
20058;BMP180;10189;49.546;7.906;2024-02-28T12:42:25;98612.00;;;11.20
20058;BMP180;10189;49.546;7.906;2024-02-28T12:44:52;98610.00;;;11.20
20058;BMP180;10189;49.546;7.906;2024-02-28T12:47:30;98608.00;;;11.20
20058;BMP180;10189;49.546;7.906;2024-02-28T12:50:01;98601.00;;;11.40
20058;BMP180;10189;49.546;7.906;2024-02-28T12:52:48;98597.00;;;11.40
20058;BMP180;10189;49.546;7.906;2024-02-28T12:55:22;98602.00;;;11.50
20058;BMP180;10189;49.546;7.906;2024-02-28T12:57:52;98589.00;;;11.60
20058;BMP180;10189;49.546;7.906;2024-02-28T13:00:22;98590.00;;;11.80
20058;BMP180;10189;49.546;7.906;2024-02-28T13:02:54;98583.00;;;11.90
20058;BMP180;10189;49.546;7.906;2024-02-28T13:05:26;98583.00;;;12.00
20058;BMP180;10189;49.546;7.906;2024-02-28T13:07:52;98590.00;;;12.10
20058;BMP180;10189;49.546;7.906;2024-02-28T13:10:18;98576.00;;;12.20
20058;BMP180;10189;49.546;7.906;2024-02-28T13:12:44;98584.00;;;12.10
20058;BMP180;10189;49.546;7.906;2024-02-28T13:15:10;98587.00;;;12.00
20058;BMP180;10189;49.546;7.906;2024-02-28T13:17:36;98577.00;;;12.20
20058;BMP180;10189;49.546;7.906;2024-02-28T13:20:02;98571.00;;;12.40
20058;BMP180;10189;49.546;7.906;2024-02-28T13:22:29;98560.00;;;12.60
20058;BMP180;10189;49.546;7.906;2024-02-28T13:24:55;98556.00;;;12.70
20058;BMP180;10189;49.546;7.906;2024-02-28T13:27:21;98555.00;;;13.00
20058;BMP180;10189;49.546;7.906;2024-02-28T13:29:47;98555.00;;;13.00
20058;BMP180;10189;49.546;7.906;2024-02-28T13:32:12;98548.00;;;13.10
20058;BMP180;10189;49.546;7.906;2024-02-28T13:34:39;98550.00;;;13.20
20058;BMP180;10189;49.546;7.906;2024-02-28T13:37:05;98549.00;;;13.20
20058;BMP180;10189;49.546;7.906;2024-02-28T13:39:31;98551.00;;;13.20
20058;BMP180;10189;49.546;7.906;2024-02-28T13:41:58;98547.00;;;13.20
20058;BMP180;10189;49.546;7.906;2024-02-28T13:44:24;98537.00;;;13.00
20058;BMP180;10189;49.546;7.906;2024-02-28T13:46:51;98534.00;;;13.00
20058;BMP180;10189;49.546;7.906;2024-02-28T13:49:19;98538.00;;;13.30
20058;BMP180;10189;49.546;7.906;2024-02-28T13:51:46;98528.00;;;13.20
20058;BMP180;10189;49.546;7.906;2024-02-28T13:54:13;98526.00;;;13.20
20058;BMP180;10189;49.546;7.906;2024-02-28T13:56:39;98520.00;;;13.10
20058;BMP180;10189;49.546;7.906;2024-02-28T13:59:05;98529.00;;;13.00
20058;BMP180;10189;49.546;7.906;2024-02-28T14:01:32;98537.00;;;13.20
20058;BMP180;10189;49.546;7.906;2024-02-28T14:03:58;98542.00;;;13.10
20058;BMP180;10189;49.546;7.906;2024-02-28T14:06:24;98543.00;;;13.30
20058;BMP180;10189;49.546;7.906;2024-02-28T14:08:50;98531.00;;;13.30
20058;BMP180;10189;49.546;7.906;2024-02-28T14:11:26;98521.00;;;13.00
20058;BMP180;10189;49.546;7.906;2024-02-28T14:13:53;98520.00;;;13.00
20058;BMP180;10189;49.546;7.906;2024-02-28T14:16:18;98519.00;;;12.80